sensor_id;sensor_type;location;lat;lon;timestamp;P1;durP1;ratioP1;P2;durP2;ratioP2
9852;SDS011;4965;43.238;27.864;2022-10-15T00:02:14;2.97;;;1.60;;
9852;SDS011;4965;43.238;27.864;2022-10-15T00:04:41;4.53;;;2.20;;
9852;SDS011;4965;43.238;27.864;2022-10-15T00:07:09;4.55;;;1.83;;
9852;SDS011;4965;43.238;27.864;2022-10-15T00:09:36;5.05;;;2.20;;
9852;SDS011;4965;43.238;27.864;2022-10-15T00:12:03;10.10;;;2.00;;
9852;SDS011;4965;43.238;27.864;2022-10-15T00:14:31;3.92;;;2.00;;
9852;SDS011;4965;43.238;27.864;2022-10-15T00:17:00;10.63;;;2.30;;
9852;SDS011;4965;43.238;27.864;2022-10-15T00:19:27;5.35;;;2.25;;
9852;SDS011;4965;43.238;27.864;2022-10-15T00:21:54;7.57;;;2.15;;
9852;SDS011;4965;43.238;27.864;2022-10-15T00:24:22;10.40;;;2.22;;
9852;SDS011;4965;43.238;27.864;2022-10-15T00:26:49;6.05;;;2.25;;
9852;SDS011;4965;43.238;27.864;2022-10-15T00:29:16;4.40;;;1.95;;
9852;SDS011;4965;43.238;27.864;2022-10-15T00:31:43;8.75;;;2.38;;
9852;SDS011;4965;43.238;27.864;2022-10-15T00:34:10;6.45;;;2.20;;
9852;SDS011;4965;43.238;27.864;2022-10-15T00:36:36;4.10;;;2.50;;
9852;SDS011;4965;43.238;27.864;2022-10-15T00:39:04;6.28;;;2.35;;
9852;SDS011;4965;43.238;27.864;2022-10-15T00:41:34;7.07;;;2.63;;
9852;SDS011;4965;43.238;27.864;2022-10-15T00:47:04;4.55;;;1.98;;
9852;SDS011;4965;43.238;27.864;2022-10-15T00:49:39;2.38;;;2.03;;
9852;SDS011;4965;43.238;27.864;2022-10-15T00:52:09;9.02;;;2.30;;
9852;SDS011;4965;43.238;27.864;2022-10-15T00:54:40;2.80;;;1.90;;
9852;SDS011;4965;43.238;27.864;2022-10-15T00:57:11;2.85;;;1.83;;
9852;SDS011;4965;43.238;27.864;2022-10-15T00:59:41;3.83;;;2.22;;
9852;SDS011;4965;43.238;27.864;2022-10-15T01:02:10;4.63;;;2.08;;
9852;SDS011;4965;43.238;27.864;2022-10-15T01:04:38;4.85;;;2.38;;
9852;SDS011;4965;43.238;27.864;2022-10-15T01:07:07;4.78;;;2.63;;
9852;SDS011;4965;43.238;27.864;2022-10-15T01:09:34;6.47;;;2.00;;
9852;SDS011;4965;43.238;27.864;2022-10-15T01:12:01;3.85;;;2.35;;
9852;SDS011;4965;43.238;27.864;2022-10-15T01:14:33;4.03;;;2.35;;
9852;SDS011;4965;43.238;27.864;2022-10-15T01:17:06;6.05;;;2.70;;
9852;SDS011;4965;43.238;27.864;2022-10-15T01:19:48;4.32;;;2.72;;
9852;SDS011;4965;43.238;27.864;2022-10-15T01:22:38;4.68;;;2.22;;
9852;SDS011;4965;43.238;27.864;2022-10-15T01:25:19;4.47;;;2.58;;
9852;SDS011;4965;43.238;27.864;2022-10-15T01:28:03;3.83;;;2.40;;
9852;SDS011;4965;43.238;27.864;2022-10-15T01:30:43;6.53;;;2.55;;
9852;SDS011;4965;43.238;27.864;2022-10-15T01:33:23;5.40;;;2.40;;
9852;SDS011;4965;43.238;27.864;2022-10-15T01:35:58;6.97;;;2.42;;
9852;SDS011;4965;43.238;27.864;2022-10-15T01:38:38;5.32;;;2.72;;
9852;SDS011;4965;43.238;27.864;2022-10-15T01:41:15;5.53;;;2.50;;
9852;SDS011;4965;43.238;27.864;2022-10-15T01:43:50;3.95;;;2.45;;
9852;SDS011;4965;43.238;27.864;2022-10-15T01:46:25;6.00;;;2.75;;
9852;SDS011;4965;43.238;27.864;2022-10-15T01:48:55;7.85;;;3.15;;
9852;SDS011;4965;43.238;27.864;2022-10-15T01:51:24;6.15;;;2.78;;
9852;SDS011;4965;43.238;27.864;2022-10-15T01:53:55;9.00;;;2.47;;
9852;SDS011;4965;43.238;27.864;2022-10-15T01:56:24;6.38;;;2.92;;
9852;SDS011;4965;43.238;27.864;2022-10-15T01:58:53;8.55;;;2.88;;
9852;SDS011;4965;43.238;27.864;2022-10-15T02:01:23;5.47;;;2.60;;
9852;SDS011;4965;43.238;27.864;2022-10-15T02:03:51;5.47;;;2.88;;
9852;SDS011;4965;43.238;27.864;2022-10-15T02:06:20;7.47;;;3.38;;
9852;SDS011;4965;43.238;27.864;2022-10-15T02:09:02;5.60;;;3.15;;
9852;SDS011;4965;43.238;27.864;2022-10-15T02:11:39;6.22;;;2.90;;
9852;SDS011;4965;43.238;27.864;2022-10-15T02:14:14;6.93;;;2.85;;
9852;SDS011;4965;43.238;27.864;2022-10-15T02:16:48;6.97;;;3.65;;
9852;SDS011;4965;43.238;27.864;2022-10-15T02:19:24;5.40;;;3.25;;
9852;SDS011;4965;43.238;27.864;2022-10-15T02:22:00;13.85;;;3.53;;
9852;SDS011;4965;43.238;27.864;2022-10-15T02:24:31;9.70;;;3.13;;
9852;SDS011;4965;43.238;27.864;2022-10-15T02:27:02;6.07;;;3.38;;
9852;SDS011;4965;43.238;27.864;2022-10-15T02:29:31;9.15;;;3.30;;
9852;SDS011;4965;43.238;27.864;2022-10-15T02:32:02;8.32;;;3.70;;
9852;SDS011;4965;43.238;27.864;2022-10-15T02:34:32;8.07;;;2.88;;
9852;SDS011;4965;43.238;27.864;2022-10-15T02:37:01;7.07;;;3.20;;
9852;SDS011;4965;43.238;27.864;2022-10-15T02:39:30;10.27;;;3.63;;
9852;SDS011;4965;43.238;27.864;2022-10-15T02:41:57;17.17;;;3.40;;
9852;SDS011;4965;43.238;27.864;2022-10-15T02:44:24;6.47;;;3.53;;
9852;SDS011;4965;43.238;27.864;2022-10-15T02:46:51;6.65;;;3.38;;
9852;SDS011;4965;43.238;27.864;2022-10-15T02:49:20;7.05;;;3.70;;
9852;SDS011;4965;43.238;27.864;2022-10-15T02:51:46;8.35;;;3.75;;
9852;SDS011;4965;43.238;27.864;2022-10-15T02:54:13;5.95;;;3.85;;
9852;SDS011;4965;43.238;27.864;2022-10-15T02:56:40;13.27;;;4.10;;
9852;SDS011;4965;43.238;27.864;2022-10-15T02:59:07;10.05;;;4.47;;
9852;SDS011;4965;43.238;27.864;2022-10-15T03:01:34;7.57;;;4.22;;
9852;SDS011;4965;43.238;27.864;2022-10-15T03:04:01;7.20;;;4.15;;
9852;SDS011;4965;43.238;27.864;2022-10-15T03:06:29;10.48;;;4.88;;
9852;SDS011;4965;43.238;27.864;2022-10-15T03:08:56;6.78;;;4.30;;
9852;SDS011;4965;43.238;27.864;2022-10-15T03:11:23;8.27;;;4.63;;
9852;SDS011;4965;43.238;27.864;2022-10-15T03:13:50;12.88;;;4.35;;
9852;SDS011;4965;43.238;27.864;2022-10-15T03:16:17;21.58;;;4.47;;
9852;SDS011;4965;43.238;27.864;2022-10-15T03:18:44;15.40;;;5.57;;
9852;SDS011;4965;43.238;27.864;2022-10-15T03:21:11;8.18;;;4.88;;
9852;SDS011;4965;43.238;27.864;2022-10-15T03:23:39;10.15;;;4.50;;
9852;SDS011;4965;43.238;27.864;2022-10-15T03:26:06;12.95;;;5.03;;
9852;SDS011;4965;43.238;27.864;2022-10-15T03:28:33;10.70;;;5.57;;
9852;SDS011;4965;43.238;27.864;2022-10-15T03:31:00;7.22;;;5.13;;
9852;SDS011;4965;43.238;27.864;2022-10-15T03:33:27;7.82;;;4.80;;
9852;SDS011;4965;43.238;27.864;2022-10-15T03:35:54;5.60;;;4.25;;
9852;SDS011;4965;43.238;27.864;2022-10-15T03:38:21;7.03;;;4.75;;
9852;SDS011;4965;43.238;27.864;2022-10-15T03:40:49;9.75;;;5.15;;
9852;SDS011;4965;43.238;27.864;2022-10-15T03:43:16;8.32;;;4.63;;
9852;SDS011;4965;43.238;27.864;2022-10-15T03:45:43;8.80;;;5.43;;
9852;SDS011;4965;43.238;27.864;2022-10-15T03:48:10;13.70;;;5.72;;
9852;SDS011;4965;43.238;27.864;2022-10-15T03:50:37;14.40;;;5.25;;
9852;SDS011;4965;43.238;27.864;2022-10-15T03:53:04;11.02;;;4.88;;
9852;SDS011;4965;43.238;27.864;2022-10-15T03:55:31;7.75;;;5.68;;
9852;SDS011;4965;43.238;27.864;2022-10-15T03:58:00;9.80;;;5.85;;
9852;SDS011;4965;43.238;27.864;2022-10-15T04:00:26;11.05;;;6.75;;
9852;SDS011;4965;43.238;27.864;2022-10-15T04:02:53;7.75;;;5.38;;
9852;SDS011;4965;43.238;27.864;2022-10-15T04:05:20;12.27;;;7.07;;
9852;SDS011;4965;43.238;27.864;2022-10-15T04:07:47;13.38;;;7.07;;
9852;SDS011;4965;43.238;27.864;2022-10-15T04:10:14;9.63;;;6.63;;
9852;SDS011;4965;43.238;27.864;2022-10-15T04:13:00;11.13;;;6.72;;
9852;SDS011;4965;43.238;27.864;2022-10-15T04:15:27;9.15;;;7.28;;
9852;SDS011;4965;43.238;27.864;2022-10-15T04:17:54;13.80;;;7.45;;
9852;SDS011;4965;43.238;27.864;2022-10-15T04:20:20;11.68;;;8.20;;
9852;SDS011;4965;43.238;27.864;2022-10-15T04:22:47;13.80;;;8.63;;
9852;SDS011;4965;43.238;27.864;2022-10-15T04:25:14;11.98;;;8.27;;
9852;SDS011;4965;43.238;27.864;2022-10-15T04:27:41;14.30;;;8.45;;
9852;SDS011;4965;43.238;27.864;2022-10-15T04:30:10;15.32;;;8.02;;
9852;SDS011;4965;43.238;27.864;2022-10-15T04:32:38;10.80;;;7.85;;
9852;SDS011;4965;43.238;27.864;2022-10-15T04:35:05;11.10;;;8.55;;
9852;SDS011;4965;43.238;27.864;2022-10-15T04:37:33;12.25;;;7.65;;
9852;SDS011;4965;43.238;27.864;2022-10-15T04:40:00;13.68;;;8.75;;
9852;SDS011;4965;43.238;27.864;2022-10-15T04:42:27;9.23;;;7.63;;
9852;SDS011;4965;43.238;27.864;2022-10-15T04:44:55;11.73;;;7.95;;
9852;SDS011;4965;43.238;27.864;2022-10-15T04:47:23;10.57;;;8.38;;
9852;SDS011;4965;43.238;27.864;2022-10-15T04:49:50;16.17;;;8.45;;
9852;SDS011;4965;43.238;27.864;2022-10-15T04:52:17;23.17;;;9.10;;
9852;SDS011;4965;43.238;27.864;2022-10-15T04:54:44;13.30;;;8.05;;
9852;SDS011;4965;43.238;27.864;2022-10-15T04:57:11;11.07;;;7.95;;
9852;SDS011;4965;43.238;27.864;2022-10-15T04:59:38;10.77;;;8.55;;
9852;SDS011;4965;43.238;27.864;2022-10-15T05:02:05;12.93;;;7.82;;
9852;SDS011;4965;43.238;27.864;2022-10-15T05:04:33;13.82;;;6.95;;
9852;SDS011;4965;43.238;27.864;2022-10-15T05:07:00;15.35;;;7.47;;
9852;SDS011;4965;43.238;27.864;2022-10-15T05:09:27;15.25;;;8.55;;
9852;SDS011;4965;43.238;27.864;2022-10-15T05:11:53;10.35;;;7.65;;
9852;SDS011;4965;43.238;27.864;2022-10-15T05:14:20;12.95;;;7.85;;
9852;SDS011;4965;43.238;27.864;2022-10-15T05:16:47;15.35;;;7.90;;
9852;SDS011;4965;43.238;27.864;2022-10-15T05:19:14;12.07;;;7.70;;
9852;SDS011;4965;43.238;27.864;2022-10-15T05:21:43;14.65;;;8.27;;
9852;SDS011;4965;43.238;27.864;2022-10-15T05:24:10;12.05;;;7.97;;
9852;SDS011;4965;43.238;27.864;2022-10-15T05:26:37;14.60;;;7.72;;
9852;SDS011;4965;43.238;27.864;2022-10-15T05:29:04;11.43;;;8.23;;
9852;SDS011;4965;43.238;27.864;2022-10-15T05:31:31;12.05;;;7.65;;
9852;SDS011;4965;43.238;27.864;2022-10-15T05:33:59;14.65;;;7.53;;
9852;SDS011;4965;43.238;27.864;2022-10-15T05:36:31;16.98;;;7.47;;
9852;SDS011;4965;43.238;27.864;2022-10-15T05:39:01;12.68;;;7.68;;
9852;SDS011;4965;43.238;27.864;2022-10-15T05:41:29;12.45;;;7.88;;
9852;SDS011;4965;43.238;27.864;2022-10-15T05:43:56;12.60;;;7.05;;
9852;SDS011;4965;43.238;27.864;2022-10-15T05:46:24;11.55;;;7.18;;
9852;SDS011;4965;43.238;27.864;2022-10-15T05:48:52;17.40;;;7.43;;
9852;SDS011;4965;43.238;27.864;2022-10-15T05:51:20;13.93;;;8.13;;
9852;SDS011;4965;43.238;27.864;2022-10-15T05:53:50;12.82;;;7.95;;
9852;SDS011;4965;43.238;27.864;2022-10-15T05:56:19;14.02;;;7.32;;
9852;SDS011;4965;43.238;27.864;2022-10-15T05:58:47;13.57;;;7.57;;
9852;SDS011;4965;43.238;27.864;2022-10-15T06:01:14;11.50;;;7.60;;
9852;SDS011;4965;43.238;27.864;2022-10-15T06:03:41;16.33;;;7.72;;
9852;SDS011;4965;43.238;27.864;2022-10-15T06:06:12;12.05;;;7.38;;
9852;SDS011;4965;43.238;27.864;2022-10-15T06:08:40;17.75;;;7.53;;
9852;SDS011;4965;43.238;27.864;2022-10-15T06:11:07;8.48;;;7.35;;
9852;SDS011;4965;43.238;27.864;2022-10-15T06:13:35;10.98;;;7.60;;
9852;SDS011;4965;43.238;27.864;2022-10-15T06:16:03;12.30;;;7.95;;
9852;SDS011;4965;43.238;27.864;2022-10-15T06:18:30;9.85;;;6.53;;
9852;SDS011;4965;43.238;27.864;2022-10-15T06:20:57;12.77;;;6.93;;
9852;SDS011;4965;43.238;27.864;2022-10-15T06:23:24;12.27;;;6.78;;
9852;SDS011;4965;43.238;27.864;2022-10-15T06:25:51;12.52;;;6.53;;
9852;SDS011;4965;43.238;27.864;2022-10-15T06:28:18;16.45;;;7.18;;
9852;SDS011;4965;43.238;27.864;2022-10-15T06:30:47;16.75;;;7.57;;
9852;SDS011;4965;43.238;27.864;2022-10-15T06:33:14;9.77;;;6.95;;
9852;SDS011;4965;43.238;27.864;2022-10-15T06:35:41;10.63;;;6.95;;
9852;SDS011;4965;43.238;27.864;2022-10-15T06:38:08;13.55;;;6.90;;
9852;SDS011;4965;43.238;27.864;2022-10-15T06:40:35;20.90;;;7.53;;
9852;SDS011;4965;43.238;27.864;2022-10-15T06:43:03;11.10;;;6.53;;
9852;SDS011;4965;43.238;27.864;2022-10-15T06:45:32;16.42;;;7.00;;
9852;SDS011;4965;43.238;27.864;2022-10-15T06:48:02;11.27;;;6.75;;
9852;SDS011;4965;43.238;27.864;2022-10-15T06:50:29;11.13;;;6.53;;
9852;SDS011;4965;43.238;27.864;2022-10-15T06:52:56;13.57;;;6.00;;
9852;SDS011;4965;43.238;27.864;2022-10-15T06:55:23;9.13;;;6.22;;
9852;SDS011;4965;43.238;27.864;2022-10-15T06:57:50;14.55;;;6.53;;
9852;SDS011;4965;43.238;27.864;2022-10-15T07:00:17;7.50;;;5.90;;
9852;SDS011;4965;43.238;27.864;2022-10-15T07:02:44;7.75;;;5.57;;
9852;SDS011;4965;43.238;27.864;2022-10-15T07:05:12;17.83;;;5.57;;
9852;SDS011;4965;43.238;27.864;2022-10-15T07:07:39;7.85;;;4.93;;
9852;SDS011;4965;43.238;27.864;2022-10-15T07:10:06;12.40;;;5.30;;
9852;SDS011;4965;43.238;27.864;2022-10-15T07:12:34;8.13;;;5.07;;
9852;SDS011;4965;43.238;27.864;2022-10-15T07:15:01;9.73;;;5.05;;
9852;SDS011;4965;43.238;27.864;2022-10-15T07:17:27;8.55;;;4.90;;
9852;SDS011;4965;43.238;27.864;2022-10-15T07:19:55;17.25;;;4.70;;
9852;SDS011;4965;43.238;27.864;2022-10-15T07:22:24;13.57;;;3.65;;
9852;SDS011;4965;43.238;27.864;2022-10-15T07:24:50;9.40;;;4.15;;
9852;SDS011;4965;43.238;27.864;2022-10-15T07:27:17;7.75;;;3.63;;
9852;SDS011;4965;43.238;27.864;2022-10-15T07:29:44;6.95;;;3.42;;
9852;SDS011;4965;43.238;27.864;2022-10-15T07:32:11;9.52;;;4.43;;
9852;SDS011;4965;43.238;27.864;2022-10-15T07:34:38;15.27;;;4.05;;
9852;SDS011;4965;43.238;27.864;2022-10-15T07:37:05;16.25;;;3.75;;
9852;SDS011;4965;43.238;27.864;2022-10-15T07:39:33;4.97;;;3.65;;
9852;SDS011;4965;43.238;27.864;2022-10-15T07:42:00;18.95;;;4.53;;
9852;SDS011;4965;43.238;27.864;2022-10-15T07:44:27;12.10;;;3.40;;
9852;SDS011;4965;43.238;27.864;2022-10-15T07:46:54;9.00;;;3.72;;
9852;SDS011;4965;43.238;27.864;2022-10-15T07:49:20;7.47;;;4.47;;
9852;SDS011;4965;43.238;27.864;2022-10-15T07:51:47;17.77;;;4.80;;
9852;SDS011;4965;43.238;27.864;2022-10-15T07:54:14;6.75;;;4.05;;
9852;SDS011;4965;43.238;27.864;2022-10-15T07:56:42;9.07;;;4.43;;
9852;SDS011;4965;43.238;27.864;2022-10-15T07:59:09;8.80;;;4.45;;
9852;SDS011;4965;43.238;27.864;2022-10-15T08:01:36;9.30;;;4.45;;
9852;SDS011;4965;43.238;27.864;2022-10-15T08:04:03;8.88;;;3.90;;
9852;SDS011;4965;43.238;27.864;2022-10-15T08:06:30;10.30;;;3.92;;
9852;SDS011;4965;43.238;27.864;2022-10-15T08:08:57;9.77;;;4.28;;
9852;SDS011;4965;43.238;27.864;2022-10-15T08:11:24;6.75;;;4.15;;
9852;SDS011;4965;43.238;27.864;2022-10-15T08:13:52;6.25;;;4.72;;
9852;SDS011;4965;43.238;27.864;2022-10-15T08:16:19;11.43;;;5.93;;
9852;SDS011;4965;43.238;27.864;2022-10-15T08:18:46;7.65;;;5.03;;
9852;SDS011;4965;43.238;27.864;2022-10-15T08:21:14;8.05;;;5.30;;
9852;SDS011;4965;43.238;27.864;2022-10-15T08:23:42;10.25;;;6.78;;
9852;SDS011;4965;43.238;27.864;2022-10-15T08:26:12;10.10;;;5.78;;
9852;SDS011;4965;43.238;27.864;2022-10-15T08:28:39;10.18;;;7.07;;
9852;SDS011;4965;43.238;27.864;2022-10-15T08:31:07;9.38;;;6.40;;
9852;SDS011;4965;43.238;27.864;2022-10-15T08:33:34;9.68;;;6.00;;
9852;SDS011;4965;43.238;27.864;2022-10-15T08:36:03;6.68;;;5.18;;
9852;SDS011;4965;43.238;27.864;2022-10-15T08:38:31;10.73;;;5.55;;
9852;SDS011;4965;43.238;27.864;2022-10-15T08:40:59;13.93;;;5.32;;
9852;SDS011;4965;43.238;27.864;2022-10-15T08:43:28;10.18;;;5.18;;
9852;SDS011;4965;43.238;27.864;2022-10-15T08:46:02;9.35;;;5.43;;
9852;SDS011;4965;43.238;27.864;2022-10-15T08:48:35;11.48;;;5.60;;
9852;SDS011;4965;43.238;27.864;2022-10-15T08:51:07;8.73;;;5.60;;
9852;SDS011;4965;43.238;27.864;2022-10-15T08:53:38;8.90;;;5.43;;
9852;SDS011;4965;43.238;27.864;2022-10-15T08:56:11;8.80;;;5.40;;
9852;SDS011;4965;43.238;27.864;2022-10-15T08:58:44;9.40;;;4.60;;
9852;SDS011;4965;43.238;27.864;2022-10-15T09:01:18;8.75;;;4.78;;
9852;SDS011;4965;43.238;27.864;2022-10-15T09:03:57;10.10;;;5.10;;
9852;SDS011;4965;43.238;27.864;2022-10-15T09:06:33;7.90;;;4.25;;
9852;SDS011;4965;43.238;27.864;2022-10-15T09:09:05;8.82;;;4.32;;
9852;SDS011;4965;43.238;27.864;2022-10-15T09:11:41;5.93;;;3.53;;
9852;SDS011;4965;43.238;27.864;2022-10-15T09:14:16;8.98;;;4.32;;
9852;SDS011;4965;43.238;27.864;2022-10-15T09:16:46;10.80;;;3.90;;
9852;SDS011;4965;43.238;27.864;2022-10-15T09:19:16;9.65;;;3.50;;
9852;SDS011;4965;43.238;27.864;2022-10-15T09:21:45;7.50;;;3.65;;
9852;SDS011;4965;43.238;27.864;2022-10-15T09:24:15;7.05;;;3.67;;
9852;SDS011;4965;43.238;27.864;2022-10-15T09:26:49;9.13;;;3.05;;
9852;SDS011;4965;43.238;27.864;2022-10-15T09:29:23;8.85;;;3.63;;
9852;SDS011;4965;43.238;27.864;2022-10-15T09:31:57;8.68;;;3.38;;
9852;SDS011;4965;43.238;27.864;2022-10-15T09:34:36;10.25;;;3.33;;
9852;SDS011;4965;43.238;27.864;2022-10-15T09:37:11;7.80;;;2.75;;
9852;SDS011;4965;43.238;27.864;2022-10-15T09:39:48;6.97;;;2.92;;
9852;SDS011;4965;43.238;27.864;2022-10-15T09:42:27;7.38;;;2.13;;
9852;SDS011;4965;43.238;27.864;2022-10-15T09:44:58;7.88;;;2.47;;
9852;SDS011;4965;43.238;27.864;2022-10-15T09:47:28;7.60;;;2.25;;
9852;SDS011;4965;43.238;27.864;2022-10-15T09:49:58;5.57;;;2.10;;
9852;SDS011;4965;43.238;27.864;2022-10-15T09:52:29;7.53;;;2.50;;
9852;SDS011;4965;43.238;27.864;2022-10-15T09:55:14;9.63;;;2.97;;
9852;SDS011;4965;43.238;27.864;2022-10-15T09:57:53;7.43;;;2.40;;
9852;SDS011;4965;43.238;27.864;2022-10-15T10:00:24;8.77;;;3.15;;
9852;SDS011;4965;43.238;27.864;2022-10-15T10:03:02;6.60;;;2.15;;
9852;SDS011;4965;43.238;27.864;2022-10-15T10:05:32;8.75;;;3.00;;
9852;SDS011;4965;43.238;27.864;2022-10-15T10:08:06;13.27;;;2.65;;
9852;SDS011;4965;43.238;27.864;2022-10-15T10:10:35;8.07;;;2.40;;
9852;SDS011;4965;43.238;27.864;2022-10-15T10:13:03;5.72;;;2.60;;
9852;SDS011;4965;43.238;27.864;2022-10-15T10:15:35;8.15;;;2.50;;
9852;SDS011;4965;43.238;27.864;2022-10-15T10:18:04;10.27;;;2.42;;
9852;SDS011;4965;43.238;27.864;2022-10-15T10:20:33;11.00;;;2.92;;
9852;SDS011;4965;43.238;27.864;2022-10-15T10:23:00;6.85;;;2.40;;
9852;SDS011;4965;43.238;27.864;2022-10-15T10:25:45;10.65;;;2.63;;
9852;SDS011;4965;43.238;27.864;2022-10-15T10:28:14;5.13;;;2.08;;
9852;SDS011;4965;43.238;27.864;2022-10-15T10:30:46;6.00;;;2.33;;
9852;SDS011;4965;43.238;27.864;2022-10-15T10:33:19;13.30;;;2.75;;
9852;SDS011;4965;43.238;27.864;2022-10-15T10:35:53;4.72;;;2.17;;
9852;SDS011;4965;43.238;27.864;2022-10-15T10:38:22;8.93;;;2.55;;
9852;SDS011;4965;43.238;27.864;2022-10-15T10:40:52;3.75;;;2.13;;
9852;SDS011;4965;43.238;27.864;2022-10-15T10:43:23;5.75;;;2.45;;
9852;SDS011;4965;43.238;27.864;2022-10-15T10:45:53;5.55;;;2.40;;
9852;SDS011;4965;43.238;27.864;2022-10-15T10:48:23;7.80;;;2.40;;
9852;SDS011;4965;43.238;27.864;2022-10-15T10:51:03;8.15;;;2.53;;
9852;SDS011;4965;43.238;27.864;2022-10-15T10:53:33;3.38;;;2.15;;
9852;SDS011;4965;43.238;27.864;2022-10-15T10:56:08;10.13;;;2.40;;
9852;SDS011;4965;43.238;27.864;2022-10-15T10:58:39;8.77;;;2.92;;
9852;SDS011;4965;43.238;27.864;2022-10-15T11:01:09;8.27;;;3.05;;
9852;SDS011;4965;43.238;27.864;2022-10-15T11:03:38;9.60;;;2.28;;
9852;SDS011;4965;43.238;27.864;2022-10-15T11:06:15;3.83;;;2.03;;
9852;SDS011;4965;43.238;27.864;2022-10-15T11:08:53;4.45;;;2.25;;
9852;SDS011;4965;43.238;27.864;2022-10-15T11:11:28;13.32;;;2.33;;
9852;SDS011;4965;43.238;27.864;2022-10-15T11:14:05;5.53;;;2.70;;
9852;SDS011;4965;43.238;27.864;2022-10-15T11:16:43;7.07;;;2.85;;
9852;SDS011;4965;43.238;27.864;2022-10-15T11:19:24;9.10;;;2.80;;
9852;SDS011;4965;43.238;27.864;2022-10-15T11:22:01;6.80;;;2.30;;
9852;SDS011;4965;43.238;27.864;2022-10-15T11:24:45;4.30;;;2.08;;
9852;SDS011;4965;43.238;27.864;2022-10-15T11:27:25;3.33;;;2.05;;
9852;SDS011;4965;43.238;27.864;2022-10-15T11:30:21;2.33;;;1.90;;
9852;SDS011;4965;43.238;27.864;2022-10-15T11:33:01;6.90;;;2.17;;
9852;SDS011;4965;43.238;27.864;2022-10-15T11:35:45;7.28;;;2.47;;
9852;SDS011;4965;43.238;27.864;2022-10-15T11:38:21;2.80;;;1.98;;
9852;SDS011;4965;43.238;27.864;2022-10-15T11:43:50;6.85;;;2.50;;
9852;SDS011;4965;43.238;27.864;2022-10-15T11:46:29;9.68;;;2.95;;
9852;SDS011;4965;43.238;27.864;2022-10-15T11:49:09;5.28;;;2.20;;
9852;SDS011;4965;43.238;27.864;2022-10-15T11:51:54;10.88;;;2.70;;
9852;SDS011;4965;43.238;27.864;2022-10-15T11:54:40;3.40;;;2.38;;
9852;SDS011;4965;43.238;27.864;2022-10-15T11:57:11;8.18;;;2.63;;
9852;SDS011;4965;43.238;27.864;2022-10-15T11:59:42;6.65;;;2.25;;
9852;SDS011;4965;43.238;27.864;2022-10-15T12:02:14;15.07;;;2.67;;
9852;SDS011;4965;43.238;27.864;2022-10-15T12:04:45;5.97;;;2.47;;
9852;SDS011;4965;43.238;27.864;2022-10-15T12:07:15;7.18;;;2.80;;
9852;SDS011;4965;43.238;27.864;2022-10-15T12:09:50;7.28;;;2.63;;
9852;SDS011;4965;43.238;27.864;2022-10-15T12:12:23;8.48;;;2.38;;
9852;SDS011;4965;43.238;27.864;2022-10-15T12:15:01;7.70;;;2.30;;
9852;SDS011;4965;43.238;27.864;2022-10-15T12:17:39;7.00;;;2.15;;
9852;SDS011;4965;43.238;27.864;2022-10-15T12:20:14;4.93;;;2.88;;
9852;SDS011;4965;43.238;27.864;2022-10-15T12:22:52;7.85;;;2.60;;
9852;SDS011;4965;43.238;27.864;2022-10-15T12:25:43;11.00;;;2.90;;
9852;SDS011;4965;43.238;27.864;2022-10-15T12:28:13;8.93;;;3.05;;
9852;SDS011;4965;43.238;27.864;2022-10-15T12:30:51;8.27;;;2.67;;
9852;SDS011;4965;43.238;27.864;2022-10-15T12:33:24;6.03;;;2.50;;
9852;SDS011;4965;43.238;27.864;2022-10-15T12:36:00;7.30;;;2.70;;
9852;SDS011;4965;43.238;27.864;2022-10-15T12:38:33;8.77;;;2.53;;
9852;SDS011;4965;43.238;27.864;2022-10-15T12:41:04;5.55;;;2.55;;
9852;SDS011;4965;43.238;27.864;2022-10-15T12:43:35;7.00;;;2.20;;
9852;SDS011;4965;43.238;27.864;2022-10-15T12:46:07;12.02;;;2.88;;
9852;SDS011;4965;43.238;27.864;2022-10-15T12:48:36;13.38;;;2.45;;
9852;SDS011;4965;43.238;27.864;2022-10-15T12:54:16;12.57;;;3.00;;
9852;SDS011;4965;43.238;27.864;2022-10-15T12:57:00;8.55;;;3.42;;
9852;SDS011;4965;43.238;27.864;2022-10-15T12:59:29;8.25;;;2.70;;
9852;SDS011;4965;43.238;27.864;2022-10-15T13:02:34;9.75;;;2.95;;
9852;SDS011;4965;43.238;27.864;2022-10-15T13:05:04;9.07;;;2.97;;
9852;SDS011;4965;43.238;27.864;2022-10-15T13:07:33;8.32;;;3.20;;
9852;SDS011;4965;43.238;27.864;2022-10-15T13:10:04;9.40;;;3.22;;
9852;SDS011;4965;43.238;27.864;2022-10-15T13:12:47;13.98;;;2.60;;
9852;SDS011;4965;43.238;27.864;2022-10-15T13:15:23;6.68;;;3.20;;
9852;SDS011;4965;43.238;27.864;2022-10-15T13:17:52;10.60;;;3.83;;
9852;SDS011;4965;43.238;27.864;2022-10-15T13:20:27;8.38;;;3.55;;
9852;SDS011;4965;43.238;27.864;2022-10-15T13:23:07;7.35;;;3.05;;
9852;SDS011;4965;43.238;27.864;2022-10-15T13:25:35;17.60;;;3.33;;
9852;SDS011;4965;43.238;27.864;2022-10-15T13:28:08;11.98;;;2.80;;
9852;SDS011;4965;43.238;27.864;2022-10-15T13:30:53;7.95;;;2.80;;
9852;SDS011;4965;43.238;27.864;2022-10-15T13:33:20;8.85;;;2.88;;
9852;SDS011;4965;43.238;27.864;2022-10-15T13:35:47;7.07;;;2.97;;
9852;SDS011;4965;43.238;27.864;2022-10-15T13:38:17;9.07;;;3.50;;
9852;SDS011;4965;43.238;27.864;2022-10-15T13:40:48;13.95;;;3.47;;
9852;SDS011;4965;43.238;27.864;2022-10-15T13:43:19;7.30;;;3.15;;
9852;SDS011;4965;43.238;27.864;2022-10-15T13:45:47;9.82;;;2.95;;
9852;SDS011;4965;43.238;27.864;2022-10-15T13:48:18;12.52;;;3.40;;
9852;SDS011;4965;43.238;27.864;2022-10-15T13:50:47;8.77;;;2.90;;
9852;SDS011;4965;43.238;27.864;2022-10-15T13:53:20;6.20;;;2.80;;
9852;SDS011;4965;43.238;27.864;2022-10-15T13:55:54;6.28;;;2.78;;
9852;SDS011;4965;43.238;27.864;2022-10-15T13:58:26;15.13;;;3.33;;
9852;SDS011;4965;43.238;27.864;2022-10-15T14:00:55;9.25;;;3.03;;
9852;SDS011;4965;43.238;27.864;2022-10-15T14:03:25;9.35;;;3.33;;
9852;SDS011;4965;43.238;27.864;2022-10-15T14:05:53;13.40;;;3.83;;
9852;SDS011;4965;43.238;27.864;2022-10-15T14:08:22;4.43;;;2.55;;
9852;SDS011;4965;43.238;27.864;2022-10-15T14:10:52;6.47;;;3.22;;
9852;SDS011;4965;43.238;27.864;2022-10-15T14:13:21;6.18;;;2.50;;
9852;SDS011;4965;43.238;27.864;2022-10-15T14:15:55;11.48;;;3.38;;
9852;SDS011;4965;43.238;27.864;2022-10-15T14:18:31;8.20;;;2.83;;
9852;SDS011;4965;43.238;27.864;2022-10-15T14:21:01;9.95;;;3.50;;
9852;SDS011;4965;43.238;27.864;2022-10-15T14:23:29;7.43;;;2.75;;
9852;SDS011;4965;43.238;27.864;2022-10-15T14:25:57;12.48;;;3.35;;
9852;SDS011;4965;43.238;27.864;2022-10-15T14:28:27;6.28;;;2.60;;
9852;SDS011;4965;43.238;27.864;2022-10-15T14:30:57;8.00;;;2.40;;
9852;SDS011;4965;43.238;27.864;2022-10-15T14:33:33;11.35;;;3.10;;
9852;SDS011;4965;43.238;27.864;2022-10-15T14:36:07;10.68;;;2.50;;
9852;SDS011;4965;43.238;27.864;2022-10-15T14:38:39;11.88;;;2.25;;
9852;SDS011;4965;43.238;27.864;2022-10-15T14:43:59;4.43;;;2.50;;
9852;SDS011;4965;43.238;27.864;2022-10-15T14:46:36;7.55;;;2.53;;
9852;SDS011;4965;43.238;27.864;2022-10-15T14:49:13;6.68;;;2.45;;
9852;SDS011;4965;43.238;27.864;2022-10-15T14:51:44;13.73;;;2.67;;
9852;SDS011;4965;43.238;27.864;2022-10-15T14:54:19;7.38;;;3.03;;
9852;SDS011;4965;43.238;27.864;2022-10-15T14:56:49;7.25;;;2.95;;
9852;SDS011;4965;43.238;27.864;2022-10-15T14:59:17;5.55;;;2.92;;
9852;SDS011;4965;43.238;27.864;2022-10-15T15:01:53;5.57;;;2.95;;
9852;SDS011;4965;43.238;27.864;2022-10-15T15:04:33;3.88;;;2.45;;
9852;SDS011;4965;43.238;27.864;2022-10-15T15:07:05;13.18;;;2.60;;
9852;SDS011;4965;43.238;27.864;2022-10-15T15:09:37;7.65;;;2.78;;
9852;SDS011;4965;43.238;27.864;2022-10-15T15:12:07;8.32;;;2.53;;
9852;SDS011;4965;43.238;27.864;2022-10-15T15:14:39;5.03;;;2.72;;
9852;SDS011;4965;43.238;27.864;2022-10-15T15:17:09;4.40;;;2.97;;
9852;SDS011;4965;43.238;27.864;2022-10-15T15:19:40;7.70;;;2.70;;
9852;SDS011;4965;43.238;27.864;2022-10-15T15:22:07;5.15;;;2.30;;
9852;SDS011;4965;43.238;27.864;2022-10-15T15:24:36;9.07;;;2.78;;
9852;SDS011;4965;43.238;27.864;2022-10-15T15:27:03;6.88;;;2.45;;
9852;SDS011;4965;43.238;27.864;2022-10-15T15:29:30;9.43;;;3.53;;